sensor_id;sensor_type;location;lat;lon;timestamp;temperature;humidity
20068;DHT22;10194;50.824;7.134;2023-05-27T00:00:07;9.10;99.90
20068;DHT22;10194;50.824;7.134;2023-05-27T00:02:33;9.00;99.90
20068;DHT22;10194;50.824;7.134;2023-05-27T00:04:59;9.00;99.90
20068;DHT22;10194;50.824;7.134;2023-05-27T00:07:25;8.90;99.90
20068;DHT22;10194;50.824;7.134;2023-05-27T00:09:51;8.80;99.90
20068;DHT22;10194;50.824;7.134;2023-05-27T00:12:17;8.80;99.90
20068;DHT22;10194;50.824;7.134;2023-05-27T00:14:43;8.70;99.90
20068;DHT22;10194;50.824;7.134;2023-05-27T00:17:09;8.70;99.90
20068;DHT22;10194;50.824;7.134;2023-05-27T00:19:39;8.60;99.90
20068;DHT22;10194;50.824;7.134;2023-05-27T00:22:06;8.60;99.90
20068;DHT22;10194;50.824;7.134;2023-05-27T00:24:35;8.60;99.90
20068;DHT22;10194;50.824;7.134;2023-05-27T00:27:07;8.60;99.90
20068;DHT22;10194;50.824;7.134;2023-05-27T00:29:34;8.50;99.90
20068;DHT22;10194;50.824;7.134;2023-05-27T00:32:00;8.40;99.90
20068;DHT22;10194;50.824;7.134;2023-05-27T00:34:28;8.40;99.90
20068;DHT22;10194;50.824;7.134;2023-05-27T00:36:55;8.40;99.90
20068;DHT22;10194;50.824;7.134;2023-05-27T00:39:21;8.30;99.90
20068;DHT22;10194;50.824;7.134;2023-05-27T00:41:54;8.40;99.90
20068;DHT22;10194;50.824;7.134;2023-05-27T00:44:23;8.50;99.90
20068;DHT22;10194;50.824;7.134;2023-05-27T00:46:49;8.40;99.90
20068;DHT22;10194;50.824;7.134;2023-05-27T00:49:15;8.30;99.90
20068;DHT22;10194;50.824;7.134;2023-05-27T00:51:42;8.20;99.90
20068;DHT22;10194;50.824;7.134;2023-05-27T00:54:08;8.20;99.90
20068;DHT22;10194;50.824;7.134;2023-05-27T00:56:36;8.20;99.90
20068;DHT22;10194;50.824;7.134;2023-05-27T00:59:05;8.20;99.90
20068;DHT22;10194;50.824;7.134;2023-05-27T01:01:31;8.10;99.90
20068;DHT22;10194;50.824;7.134;2023-05-27T01:03:59;8.10;99.90
20068;DHT22;10194;50.824;7.134;2023-05-27T01:09:31;8.00;99.90
20068;DHT22;10194;50.824;7.134;2023-05-27T01:14:37;7.90;99.90
20068;DHT22;10194;50.824;7.134;2023-05-27T01:17:06;7.90;99.90
20068;DHT22;10194;50.824;7.134;2023-05-27T01:19:37;7.80;99.90
20068;DHT22;10194;50.824;7.134;2023-05-27T01:22:08;7.80;99.90
20068;DHT22;10194;50.824;7.134;2023-05-27T01:24:36;7.80;99.90
20068;DHT22;10194;50.824;7.134;2023-05-27T01:27:03;7.80;99.90
20068;DHT22;10194;50.824;7.134;2023-05-27T01:29:30;7.80;99.90
20068;DHT22;10194;50.824;7.134;2023-05-27T01:35:04;7.80;99.90
20068;DHT22;10194;50.824;7.134;2023-05-27T01:37:36;7.70;99.90
20068;DHT22;10194;50.824;7.134;2023-05-27T01:40:06;7.80;99.90
20068;DHT22;10194;50.824;7.134;2023-05-27T01:42:37;7.80;99.90
20068;DHT22;10194;50.824;7.134;2023-05-27T01:45:06;7.80;99.90
20068;DHT22;10194;50.824;7.134;2023-05-27T01:47:33;7.80;99.90
20068;DHT22;10194;50.824;7.134;2023-05-27T01:50:00;7.90;99.90
20068;DHT22;10194;50.824;7.134;2023-05-27T01:52:26;8.10;99.90
20068;DHT22;10194;50.824;7.134;2023-05-27T01:54:52;8.10;99.90
20068;DHT22;10194;50.824;7.134;2023-05-27T01:57:20;8.20;99.90
20068;DHT22;10194;50.824;7.134;2023-05-27T01:59:46;8.30;99.90
20068;DHT22;10194;50.824;7.134;2023-05-27T02:02:12;8.20;99.90
20068;DHT22;10194;50.824;7.134;2023-05-27T02:04:38;8.30;99.90
20068;DHT22;10194;50.824;7.134;2023-05-27T02:07:04;8.30;99.90
20068;DHT22;10194;50.824;7.134;2023-05-27T02:09:29;8.20;99.90
20068;DHT22;10194;50.824;7.134;2023-05-27T02:11:56;8.20;99.90
20068;DHT22;10194;50.824;7.134;2023-05-27T02:14:21;8.00;99.90
20068;DHT22;10194;50.824;7.134;2023-05-27T02:16:47;8.10;99.90
20068;DHT22;10194;50.824;7.134;2023-05-27T02:19:15;8.00;99.90
20068;DHT22;10194;50.824;7.134;2023-05-27T02:21:41;7.90;99.90
20068;DHT22;10194;50.824;7.134;2023-05-27T02:24:07;7.80;99.90
20068;DHT22;10194;50.824;7.134;2023-05-27T02:26:34;7.70;99.90
20068;DHT22;10194;50.824;7.134;2023-05-27T02:28:59;7.90;99.90
20068;DHT22;10194;50.824;7.134;2023-05-27T02:31:25;7.90;99.90
20068;DHT22;10194;50.824;7.134;2023-05-27T02:33:51;7.90;99.90
20068;DHT22;10194;50.824;7.134;2023-05-27T02:36:17;8.00;99.90
20068;DHT22;10194;50.824;7.134;2023-05-27T02:38:43;8.00;99.90
20068;DHT22;10194;50.824;7.134;2023-05-27T02:41:10;7.90;99.90
20068;DHT22;10194;50.824;7.134;2023-05-27T02:43:36;7.80;99.90
20068;DHT22;10194;50.824;7.134;2023-05-27T02:46:01;7.70;99.90
20068;DHT22;10194;50.824;7.134;2023-05-27T02:48:27;7.70;99.90
20068;DHT22;10194;50.824;7.134;2023-05-27T02:50:53;7.70;99.90
20068;DHT22;10194;50.824;7.134;2023-05-27T02:53:19;7.70;99.90
20068;DHT22;10194;50.824;7.134;2023-05-27T02:55:44;7.70;99.90
20068;DHT22;10194;50.824;7.134;2023-05-27T02:58:10;7.70;99.90
20068;DHT22;10194;50.824;7.134;2023-05-27T03:00:36;7.60;99.90
20068;DHT22;10194;50.824;7.134;2023-05-27T03:03:02;7.60;99.90
20068;DHT22;10194;50.824;7.134;2023-05-27T03:05:30;7.50;99.90
20068;DHT22;10194;50.824;7.134;2023-05-27T03:07:56;7.40;99.90
20068;DHT22;10194;50.824;7.134;2023-05-27T03:10:22;7.40;99.90
20068;DHT22;10194;50.824;7.134;2023-05-27T03:12:47;7.30;99.90
20068;DHT22;10194;50.824;7.134;2023-05-27T03:15:13;7.30;99.90
20068;DHT22;10194;50.824;7.134;2023-05-27T03:17:40;7.20;99.90
20068;DHT22;10194;50.824;7.134;2023-05-27T03:20:06;7.20;99.90
20068;DHT22;10194;50.824;7.134;2023-05-27T03:22:34;7.20;99.90
20068;DHT22;10194;50.824;7.134;2023-05-27T03:25:00;7.30;99.90
20068;DHT22;10194;50.824;7.134;2023-05-27T03:27:26;7.20;99.90
20068;DHT22;10194;50.824;7.134;2023-05-27T03:29:52;7.20;99.90
20068;DHT22;10194;50.824;7.134;2023-05-27T03:32:18;7.30;99.90
20068;DHT22;10194;50.824;7.134;2023-05-27T03:34:44;7.20;99.90
20068;DHT22;10194;50.824;7.134;2023-05-27T03:37:10;7.20;99.90
20068;DHT22;10194;50.824;7.134;2023-05-27T03:39:35;7.20;99.90
20068;DHT22;10194;50.824;7.134;2023-05-27T03:42:01;7.30;99.90
20068;DHT22;10194;50.824;7.134;2023-05-27T03:44:27;7.20;99.90
20068;DHT22;10194;50.824;7.134;2023-05-27T03:46:53;7.20;99.90
20068;DHT22;10194;50.824;7.134;2023-05-27T03:49:18;7.20;99.90
20068;DHT22;10194;50.824;7.134;2023-05-27T03:51:44;7.30;99.90
20068;DHT22;10194;50.824;7.134;2023-05-27T03:54:10;7.40;99.90
20068;DHT22;10194;50.824;7.134;2023-05-27T03:56:36;7.50;99.90
20068;DHT22;10194;50.824;7.134;2023-05-27T03:59:02;7.50;99.90
20068;DHT22;10194;50.824;7.134;2023-05-27T04:01:27;7.50;99.90
20068;DHT22;10194;50.824;7.134;2023-05-27T04:03:53;7.50;99.90
20068;DHT22;10194;50.824;7.134;2023-05-27T04:06:19;7.50;99.90
20068;DHT22;10194;50.824;7.134;2023-05-27T04:08:45;7.50;99.90
20068;DHT22;10194;50.824;7.134;2023-05-27T04:11:12;7.50;99.90
20068;DHT22;10194;50.824;7.134;2023-05-27T04:13:38;7.60;99.90
20068;DHT22;10194;50.824;7.134;2023-05-27T04:16:05;7.50;99.90
20068;DHT22;10194;50.824;7.134;2023-05-27T04:18:30;7.50;99.90
20068;DHT22;10194;50.824;7.134;2023-05-27T04:20:56;7.50;99.90
20068;DHT22;10194;50.824;7.134;2023-05-27T04:23:23;7.50;99.90
20068;DHT22;10194;50.824;7.134;2023-05-27T04:25:49;7.60;99.90
20068;DHT22;10194;50.824;7.134;2023-05-27T04:28:16;7.60;99.90
20068;DHT22;10194;50.824;7.134;2023-05-27T04:30:42;7.70;99.90
20068;DHT22;10194;50.824;7.134;2023-05-27T04:33:09;7.80;99.90
20068;DHT22;10194;50.824;7.134;2023-05-27T04:35:36;7.90;99.90
20068;DHT22;10194;50.824;7.134;2023-05-27T04:38:02;7.90;99.90
20068;DHT22;10194;50.824;7.134;2023-05-27T04:40:28;7.90;99.90
20068;DHT22;10194;50.824;7.134;2023-05-27T04:42:57;8.00;99.90
20068;DHT22;10194;50.824;7.134;2023-05-27T04:45:22;8.00;99.90
20068;DHT22;10194;50.824;7.134;2023-05-27T04:47:49;8.00;99.90
20068;DHT22;10194;50.824;7.134;2023-05-27T04:50:14;8.10;99.90
20068;DHT22;10194;50.824;7.134;2023-05-27T04:52:40;8.20;99.90
20068;DHT22;10194;50.824;7.134;2023-05-27T04:55:10;8.20;99.90
20068;DHT22;10194;50.824;7.134;2023-05-27T04:57:36;8.30;99.90
20068;DHT22;10194;50.824;7.134;2023-05-27T05:00:06;8.30;99.90
20068;DHT22;10194;50.824;7.134;2023-05-27T05:02:36;8.40;99.90
20068;DHT22;10194;50.824;7.134;2023-05-27T05:05:06;8.50;99.90
20068;DHT22;10194;50.824;7.134;2023-05-27T05:07:40;8.50;99.90
20068;DHT22;10194;50.824;7.134;2023-05-27T05:10:08;8.60;99.90
20068;DHT22;10194;50.824;7.134;2023-05-27T05:12:35;8.70;99.90
20068;DHT22;10194;50.824;7.134;2023-05-27T05:15:02;8.80;99.90
20068;DHT22;10194;50.824;7.134;2023-05-27T05:17:28;8.90;99.90
20068;DHT22;10194;50.824;7.134;2023-05-27T05:19:54;9.00;99.90
20068;DHT22;10194;50.824;7.134;2023-05-27T05:22:20;9.10;99.90
20068;DHT22;10194;50.824;7.134;2023-05-27T05:24:49;9.20;99.90
20068;DHT22;10194;50.824;7.134;2023-05-27T05:27:15;9.30;99.90
20068;DHT22;10194;50.824;7.134;2023-05-27T05:29:41;9.40;99.90
20068;DHT22;10194;50.824;7.134;2023-05-27T05:32:08;9.50;99.90
20068;DHT22;10194;50.824;7.134;2023-05-27T05:34:37;9.60;99.90
20068;DHT22;10194;50.824;7.134;2023-05-27T05:37:04;9.70;99.90
20068;DHT22;10194;50.824;7.134;2023-05-27T05:39:30;9.80;99.90
20068;DHT22;10194;50.824;7.134;2023-05-27T05:41:56;9.90;99.90
20068;DHT22;10194;50.824;7.134;2023-05-27T05:44:23;10.10;99.90
20068;DHT22;10194;50.824;7.134;2023-05-27T05:46:49;10.40;99.90
20068;DHT22;10194;50.824;7.134;2023-05-27T05:49:15;10.60;99.90
20068;DHT22;10194;50.824;7.134;2023-05-27T05:51:41;10.80;99.90
20068;DHT22;10194;50.824;7.134;2023-05-27T05:54:07;11.20;99.90
20068;DHT22;10194;50.824;7.134;2023-05-27T05:56:33;11.20;99.90
20068;DHT22;10194;50.824;7.134;2023-05-27T05:58:59;11.10;99.90
20068;DHT22;10194;50.824;7.134;2023-05-27T06:01:25;11.10;99.90
20068;DHT22;10194;50.824;7.134;2023-05-27T06:03:53;11.20;99.90
20068;DHT22;10194;50.824;7.134;2023-05-27T06:06:19;11.20;99.90
20068;DHT22;10194;50.824;7.134;2023-05-27T06:08:45;11.20;99.90
20068;DHT22;10194;50.824;7.134;2023-05-27T06:11:11;11.30;99.90
20068;DHT22;10194;50.824;7.134;2023-05-27T06:13:38;11.40;99.90
20068;DHT22;10194;50.824;7.134;2023-05-27T06:16:04;11.60;99.90
20068;DHT22;10194;50.824;7.134;2023-05-27T06:18:30;11.80;99.90
20068;DHT22;10194;50.824;7.134;2023-05-27T06:20:55;12.00;99.90
20068;DHT22;10194;50.824;7.134;2023-05-27T06:23:22;11.90;99.90
20068;DHT22;10194;50.824;7.134;2023-05-27T06:25:47;11.90;99.90
20068;DHT22;10194;50.824;7.134;2023-05-27T06:28:13;12.30;99.90
20068;DHT22;10194;50.824;7.134;2023-05-27T06:30:39;12.90;99.90
20068;DHT22;10194;50.824;7.134;2023-05-27T06:33:08;13.80;99.90
20068;DHT22;10194;50.824;7.134;2023-05-27T06:35:34;14.50;99.90
20068;DHT22;10194;50.824;7.134;2023-05-27T06:38:00;15.30;99.90
20068;DHT22;10194;50.824;7.134;2023-05-27T06:40:26;15.80;99.90
20068;DHT22;10194;50.824;7.134;2023-05-27T06:42:53;16.10;99.90
20068;DHT22;10194;50.824;7.134;2023-05-27T06:45:19;16.30;99.90
20068;DHT22;10194;50.824;7.134;2023-05-27T06:47:45;16.30;99.90
20068;DHT22;10194;50.824;7.134;2023-05-27T06:50:11;16.20;99.90
20068;DHT22;10194;50.824;7.134;2023-05-27T06:52:37;16.50;99.90
20068;DHT22;10194;50.824;7.134;2023-05-27T06:55:03;16.70;99.90
20068;DHT22;10194;50.824;7.134;2023-05-27T06:57:29;17.30;99.90
20068;DHT22;10194;50.824;7.134;2023-05-27T06:59:55;17.50;99.90
20068;DHT22;10194;50.824;7.134;2023-05-27T07:02:21;18.00;99.90
20068;DHT22;10194;50.824;7.134;2023-05-27T07:04:47;18.50;99.90
20068;DHT22;10194;50.824;7.134;2023-05-27T07:07:13;18.10;99.90
20068;DHT22;10194;50.824;7.134;2023-05-27T07:09:38;18.50;99.90
20068;DHT22;10194;50.824;7.134;2023-05-27T07:12:04;18.90;99.90
20068;DHT22;10194;50.824;7.134;2023-05-27T07:14:32;19.10;99.90
20068;DHT22;10194;50.824;7.134;2023-05-27T07:16:58;19.30;99.90
20068;DHT22;10194;50.824;7.134;2023-05-27T07:19:24;19.50;99.90
20068;DHT22;10194;50.824;7.134;2023-05-27T07:21:49;19.90;99.90
20068;DHT22;10194;50.824;7.134;2023-05-27T07:24:16;19.90;98.00
20068;DHT22;10194;50.824;7.134;2023-05-27T07:26:42;20.00;98.40
20068;DHT22;10194;50.824;7.134;2023-05-27T07:29:08;20.80;96.40
20068;DHT22;10194;50.824;7.134;2023-05-27T07:31:34;21.00;99.40
20068;DHT22;10194;50.824;7.134;2023-05-27T07:34:00;20.50;96.90
20068;DHT22;10194;50.824;7.134;2023-05-27T07:36:25;20.40;98.70
20068;DHT22;10194;50.824;7.134;2023-05-27T07:38:51;20.70;99.90
20068;DHT22;10194;50.824;7.134;2023-05-27T07:41:17;20.40;95.10
20068;DHT22;10194;50.824;7.134;2023-05-27T07:43:43;20.50;98.30
20068;DHT22;10194;50.824;7.134;2023-05-27T07:46:09;20.50;98.90
20068;DHT22;10194;50.824;7.134;2023-05-27T07:48:35;20.60;98.00
20068;DHT22;10194;50.824;7.134;2023-05-27T07:51:01;20.40;97.80
20068;DHT22;10194;50.824;7.134;2023-05-27T07:53:26;20.30;98.50
20068;DHT22;10194;50.824;7.134;2023-05-27T07:55:52;20.40;99.90
20068;DHT22;10194;50.824;7.134;2023-05-27T07:58:18;20.50;99.90
20068;DHT22;10194;50.824;7.134;2023-05-27T08:00:44;20.50;99.90
20068;DHT22;10194;50.824;7.134;2023-05-27T08:03:09;20.20;97.80
20068;DHT22;10194;50.824;7.134;2023-05-27T08:05:36;19.90;98.50
20068;DHT22;10194;50.824;7.134;2023-05-27T08:08:02;20.00;99.90
20068;DHT22;10194;50.824;7.134;2023-05-27T08:10:27;20.10;99.10
20068;DHT22;10194;50.824;7.134;2023-05-27T08:12:53;20.00;99.90
20068;DHT22;10194;50.824;7.134;2023-05-27T08:15:19;20.00;99.30
20068;DHT22;10194;50.824;7.134;2023-05-27T08:17:44;20.40;99.50
20068;DHT22;10194;50.824;7.134;2023-05-27T08:20:11;20.40;96.70
20068;DHT22;10194;50.824;7.134;2023-05-27T08:22:37;20.40;99.90
20068;DHT22;10194;50.824;7.134;2023-05-27T08:25:03;20.60;99.90
20068;DHT22;10194;50.824;7.134;2023-05-27T08:27:51;20.50;98.10
20068;DHT22;10194;50.824;7.134;2023-05-27T08:30:19;20.60;97.40
20068;DHT22;10194;50.824;7.134;2023-05-27T08:32:45;20.10;98.70
20068;DHT22;10194;50.824;7.134;2023-05-27T08:35:11;20.40;95.80
20068;DHT22;10194;50.824;7.134;2023-05-27T08:37:37;20.50;97.30
20068;DHT22;10194;50.824;7.134;2023-05-27T08:40:06;20.20;94.70
20068;DHT22;10194;50.824;7.134;2023-05-27T08:42:33;19.90;95.50
20068;DHT22;10194;50.824;7.134;2023-05-27T08:44:59;20.10;97.70
20068;DHT22;10194;50.824;7.134;2023-05-27T08:47:29;20.60;96.10
20068;DHT22;10194;50.824;7.134;2023-05-27T08:49:57;20.60;95.90
20068;DHT22;10194;50.824;7.134;2023-05-27T08:52:29;20.70;94.70
20068;DHT22;10194;50.824;7.134;2023-05-27T08:54:59;20.30;95.70
20068;DHT22;10194;50.824;7.134;2023-05-27T08:57:30;20.60;96.20
20068;DHT22;10194;50.824;7.134;2023-05-27T08:59:57;20.90;93.20
20068;DHT22;10194;50.824;7.134;2023-05-27T09:02:24;21.40;95.70
20068;DHT22;10194;50.824;7.134;2023-05-27T09:04:50;21.40;95.40
20068;DHT22;10194;50.824;7.134;2023-05-27T09:07:19;21.60;91.80
20068;DHT22;10194;50.824;7.134;2023-05-27T09:09:58;21.70;90.90
20068;DHT22;10194;50.824;7.134;2023-05-27T09:12:25;22.00;94.90
20068;DHT22;10194;50.824;7.134;2023-05-27T09:14:52;21.00;90.50
20068;DHT22;10194;50.824;7.134;2023-05-27T09:17:21;21.40;95.60
20068;DHT22;10194;50.824;7.134;2023-05-27T09:19:53;21.30;89.70
20068;DHT22;10194;50.824;7.134;2023-05-27T09:24:56;20.70;88.20
20068;DHT22;10194;50.824;7.134;2023-05-27T09:27:29;20.90;91.90
20068;DHT22;10194;50.824;7.134;2023-05-27T09:29:58;21.00;89.10
20068;DHT22;10194;50.824;7.134;2023-05-27T09:32:32;21.30;90.30
20068;DHT22;10194;50.824;7.134;2023-05-27T09:34:59;21.20;87.70
20068;DHT22;10194;50.824;7.134;2023-05-27T09:37:27;20.70;85.30
20068;DHT22;10194;50.824;7.134;2023-05-27T09:40:21;20.60;86.90
20068;DHT22;10194;50.824;7.134;2023-05-27T09:42:48;20.70;87.00
20068;DHT22;10194;50.824;7.134;2023-05-27T09:45:19;20.70;90.00
20068;DHT22;10194;50.824;7.134;2023-05-27T09:47:51;21.10;86.00
20068;DHT22;10194;50.824;7.134;2023-05-27T09:50:19;21.60;92.40
20068;DHT22;10194;50.824;7.134;2023-05-27T09:52:46;22.10;85.80
20068;DHT22;10194;50.824;7.134;2023-05-27T09:55:14;21.90;82.90
20068;DHT22;10194;50.824;7.134;2023-05-27T09:57:41;21.30;83.60
20068;DHT22;10194;50.824;7.134;2023-05-27T10:00:08;21.40;86.60
20068;DHT22;10194;50.824;7.134;2023-05-27T10:02:40;22.00;87.60
20068;DHT22;10194;50.824;7.134;2023-05-27T10:05:08;22.50;81.60
20068;DHT22;10194;50.824;7.134;2023-05-27T10:07:38;21.70;78.50
20068;DHT22;10194;50.824;7.134;2023-05-27T10:10:25;21.10;82.00
20068;DHT22;10194;50.824;7.134;2023-05-27T10:12:54;20.80;80.90
20068;DHT22;10194;50.824;7.134;2023-05-27T10:15:31;21.30;84.60
20068;DHT22;10194;50.824;7.134;2023-05-27T10:17:58;21.30;78.10
20068;DHT22;10194;50.824;7.134;2023-05-27T10:20:28;21.60;79.90
20068;DHT22;10194;50.824;7.134;2023-05-27T10:23:14;22.00;81.20
20068;DHT22;10194;50.824;7.134;2023-05-27T10:25:48;22.00;80.60
20068;DHT22;10194;50.824;7.134;2023-05-27T10:28:31;21.60;77.80
20068;DHT22;10194;50.824;7.134;2023-05-27T10:31:10;22.00;83.10
20068;DHT22;10194;50.824;7.134;2023-05-27T10:33:37;22.60;82.60
20068;DHT22;10194;50.824;7.134;2023-05-27T10:38:36;22.50;71.00
20068;DHT22;10194;50.824;7.134;2023-05-27T10:41:03;22.30;68.90
20068;DHT22;10194;50.824;7.134;2023-05-27T10:43:32;22.40;71.00
20068;DHT22;10194;50.824;7.134;2023-05-27T10:46:02;22.10;71.30
20068;DHT22;10194;50.824;7.134;2023-05-27T10:48:28;21.30;73.00
20068;DHT22;10194;50.824;7.134;2023-05-27T10:50:57;21.50;74.70
20068;DHT22;10194;50.824;7.134;2023-05-27T10:53:26;21.90;71.80
20068;DHT22;10194;50.824;7.134;2023-05-27T10:55:53;22.00;74.00
20068;DHT22;10194;50.824;7.134;2023-05-27T10:58:20;22.00;75.20
20068;DHT22;10194;50.824;7.134;2023-05-27T11:00:48;22.50;76.80
20068;DHT22;10194;50.824;7.134;2023-05-27T11:03:20;22.70;72.50
20068;DHT22;10194;50.824;7.134;2023-05-27T11:05:59;22.80;74.20
20068;DHT22;10194;50.824;7.134;2023-05-27T11:08:26;22.60;67.80
20068;DHT22;10194;50.824;7.134;2023-05-27T11:11:01;22.40;69.60
20068;DHT22;10194;50.824;7.134;2023-05-27T11:13:35;21.80;71.20
20068;DHT22;10194;50.824;7.134;2023-05-27T11:16:04;21.80;72.40
20068;DHT22;10194;50.824;7.134;2023-05-27T11:18:48;21.90;76.30
20068;DHT22;10194;50.824;7.134;2023-05-27T11:21:15;22.00;69.60
20068;DHT22;10194;50.824;7.134;2023-05-27T11:23:44;21.90;70.60
20068;DHT22;10194;50.824;7.134;2023-05-27T11:28:47;21.50;67.90
20068;DHT22;10194;50.824;7.134;2023-05-27T11:31:14;21.50;68.70
20068;DHT22;10194;50.824;7.134;2023-05-27T11:33:41;22.00;71.60
20068;DHT22;10194;50.824;7.134;2023-05-27T11:36:13;21.70;67.80
20068;DHT22;10194;50.824;7.134;2023-05-27T11:38:47;21.90;68.20
20068;DHT22;10194;50.824;7.134;2023-05-27T11:41:14;22.00;71.00
20068;DHT22;10194;50.824;7.134;2023-05-27T11:43:50;21.80;66.60
20068;DHT22;10194;50.824;7.134;2023-05-27T11:46:18;21.80;67.20
20068;DHT22;10194;50.824;7.134;2023-05-27T11:48:44;21.80;68.80
20068;DHT22;10194;50.824;7.134;2023-05-27T11:51:11;22.10;68.40
20068;DHT22;10194;50.824;7.134;2023-05-27T11:53:55;21.90;64.90
20068;DHT22;10194;50.824;7.134;2023-05-27T11:56:22;22.00;66.20
20068;DHT22;10194;50.824;7.134;2023-05-27T11:58:50;22.10;67.00
20068;DHT22;10194;50.824;7.134;2023-05-27T12:01:15;22.20;67.00
20068;DHT22;10194;50.824;7.134;2023-05-27T12:03:41;22.50;70.60
20068;DHT22;10194;50.824;7.134;2023-05-27T12:06:07;22.50;65.20
20068;DHT22;10194;50.824;7.134;2023-05-27T12:08:33;22.50;63.90
20068;DHT22;10194;50.824;7.134;2023-05-27T12:10:58;22.60;62.00
20068;DHT22;10194;50.824;7.134;2023-05-27T12:13:26;22.50;62.40
20068;DHT22;10194;50.824;7.134;2023-05-27T12:15:54;22.40;61.10
20068;DHT22;10194;50.824;7.134;2023-05-27T12:18:20;22.20;60.50
20068;DHT22;10194;50.824;7.134;2023-05-27T12:20:45;22.20;64.20
20068;DHT22;10194;50.824;7.134;2023-05-27T12:23:11;22.20;64.00
20068;DHT22;10194;50.824;7.134;2023-05-27T12:25:37;22.30;62.70
20068;DHT22;10194;50.824;7.134;2023-05-27T12:28:06;22.20;62.80
20068;DHT22;10194;50.824;7.134;2023-05-27T12:30:32;22.20;64.10
20068;DHT22;10194;50.824;7.134;2023-05-27T12:32:58;22.40;64.60
20068;DHT22;10194;50.824;7.134;2023-05-27T12:35:24;22.40;60.90
20068;DHT22;10194;50.824;7.134;2023-05-27T12:37:51;22.30;60.00
20068;DHT22;10194;50.824;7.134;2023-05-27T12:40:17;22.20;60.20
20068;DHT22;10194;50.824;7.134;2023-05-27T12:42:43;22.40;60.40
20068;DHT22;10194;50.824;7.134;2023-05-27T12:45:10;22.60;63.50
20068;DHT22;10194;50.824;7.134;2023-05-27T12:47:37;22.60;65.30
20068;DHT22;10194;50.824;7.134;2023-05-27T12:50:03;22.30;60.00
20068;DHT22;10194;50.824;7.134;2023-05-27T12:52:29;22.20;62.30
20068;DHT22;10194;50.824;7.134;2023-05-27T12:54:56;22.20;58.70
20068;DHT22;10194;50.824;7.134;2023-05-27T12:57:22;22.10;59.10
20068;DHT22;10194;50.824;7.134;2023-05-27T12:59:48;22.10;59.20
20068;DHT22;10194;50.824;7.134;2023-05-27T13:02:13;22.30;59.00
20068;DHT22;10194;50.824;7.134;2023-05-27T13:04:39;22.20;56.70
20068;DHT22;10194;50.824;7.134;2023-05-27T13:07:09;22.40;55.60
20068;DHT22;10194;50.824;7.134;2023-05-27T13:09:35;22.40;56.10
20068;DHT22;10194;50.824;7.134;2023-05-27T13:12:01;22.50;55.40
20068;DHT22;10194;50.824;7.134;2023-05-27T13:14:27;22.40;57.30
20068;DHT22;10194;50.824;7.134;2023-05-27T13:16:53;22.30;55.80
20068;DHT22;10194;50.824;7.134;2023-05-27T13:19:20;22.40;56.10
20068;DHT22;10194;50.824;7.134;2023-05-27T13:21:46;22.40;56.10
20068;DHT22;10194;50.824;7.134;2023-05-27T13:24:12;22.50;54.70
20068;DHT22;10194;50.824;7.134;2023-05-27T13:26:38;22.70;51.30
20068;DHT22;10194;50.824;7.134;2023-05-27T13:29:03;22.80;50.30
20068;DHT22;10194;50.824;7.134;2023-05-27T13:31:29;22.80;48.90
20068;DHT22;10194;50.824;7.134;2023-05-27T13:33:55;22.60;47.90
20068;DHT22;10194;50.824;7.134;2023-05-27T13:36:21;22.40;49.00
20068;DHT22;10194;50.824;7.134;2023-05-27T13:38:46;22.50;53.00
20068;DHT22;10194;50.824;7.134;2023-05-27T13:41:12;22.60;53.40
20068;DHT22;10194;50.824;7.134;2023-05-27T13:43:38;22.50;50.30
20068;DHT22;10194;50.824;7.134;2023-05-27T13:46:03;22.60;50.60
20068;DHT22;10194;50.824;7.134;2023-05-27T13:48:29;22.80;50.70
20068;DHT22;10194;50.824;7.134;2023-05-27T13:50:55;22.80;51.70
20068;DHT22;10194;50.824;7.134;2023-05-27T13:53:21;22.80;53.20
20068;DHT22;10194;50.824;7.134;2023-05-27T13:55:47;22.70;51.30
20068;DHT22;10194;50.824;7.134;2023-05-27T13:58:13;22.80;53.40
20068;DHT22;10194;50.824;7.134;2023-05-27T14:00:39;22.90;52.10
20068;DHT22;10194;50.824;7.134;2023-05-27T14:03:04;23.20;52.10
20068;DHT22;10194;50.824;7.134;2023-05-27T14:05:30;23.20;50.10
20068;DHT22;10194;50.824;7.134;2023-05-27T14:07:56;23.10;51.60
20068;DHT22;10194;50.824;7.134;2023-05-27T14:10:22;23.00;50.70
20068;DHT22;10194;50.824;7.134;2023-05-27T14:12:48;23.10;52.80
20068;DHT22;10194;50.824;7.134;2023-05-27T14:15:13;23.20;52.40
20068;DHT22;10194;50.824;7.134;2023-05-27T14:17:39;23.40;50.20
20068;DHT22;10194;50.824;7.134;2023-05-27T14:20:06;23.50;50.50
20068;DHT22;10194;50.824;7.134;2023-05-27T14:22:36;23.40;51.00
20068;DHT22;10194;50.824;7.134;2023-05-27T14:25:03;23.50;51.30
20068;DHT22;10194;50.824;7.134;2023-05-27T14:27:29;23.50;51.70
20068;DHT22;10194;50.824;7.134;2023-05-27T14:29:55;23.40;50.60
20068;DHT22;10194;50.824;7.134;2023-05-27T14:32:21;23.30;51.40
20068;DHT22;10194;50.824;7.134;2023-05-27T14:34:46;23.30;51.00
20068;DHT22;10194;50.824;7.134;2023-05-27T14:37:12;23.20;51.50
20068;DHT22;10194;50.824;7.134;2023-05-27T14:39:38;23.20;49.80
20068;DHT22;10194;50.824;7.134;2023-05-27T14:42:04;23.10;50.70
20068;DHT22;10194;50.824;7.134;2023-05-27T14:44:34;23.20;52.00
20068;DHT22;10194;50.824;7.134;2023-05-27T14:47:01;23.40;52.20
20068;DHT22;10194;50.824;7.134;2023-05-27T14:49:27;23.30;50.70
20068;DHT22;10194;50.824;7.134;2023-05-27T14:51:53;23.20;51.70
20068;DHT22;10194;50.824;7.134;2023-05-27T14:54:18;23.10;50.90
20068;DHT22;10194;50.824;7.134;2023-05-27T14:56:44;23.20;50.80
20068;DHT22;10194;50.824;7.134;2023-05-27T14:59:10;23.30;50.50
20068;DHT22;10194;50.824;7.134;2023-05-27T15:01:36;23.30;51.30
20068;DHT22;10194;50.824;7.134;2023-05-27T15:04:02;23.40;50.90
20068;DHT22;10194;50.824;7.134;2023-05-27T15:06:28;23.40;50.00
20068;DHT22;10194;50.824;7.134;2023-05-27T15:08:53;23.50;51.10
20068;DHT22;10194;50.824;7.134;2023-05-27T15:11:19;23.40;49.60
20068;DHT22;10194;50.824;7.134;2023-05-27T15:13:45;23.30;49.90
20068;DHT22;10194;50.824;7.134;2023-05-27T15:16:11;23.50;51.10
20068;DHT22;10194;50.824;7.134;2023-05-27T15:18:36;23.60;49.00
20068;DHT22;10194;50.824;7.134;2023-05-27T15:21:02;23.40;50.70
20068;DHT22;10194;50.824;7.134;2023-05-27T15:23:28;23.30;50.30
20068;DHT22;10194;50.824;7.134;2023-05-27T15:25:54;23.30;50.90
20068;DHT22;10194;50.824;7.134;2023-05-27T15:28:20;23.40;50.50
20068;DHT22;10194;50.824;7.134;2023-05-27T15:30:46;23.30;49.60
20068;DHT22;10194;50.824;7.134;2023-05-27T15:33:12;23.30;50.30
20068;DHT22;10194;50.824;7.134;2023-05-27T15:35:37;23.40;49.50
20068;DHT22;10194;50.824;7.134;2023-05-27T15:38:04;23.40;49.10
20068;DHT22;10194;50.824;7.134;2023-05-27T15:40:31;23.40;49.80
20068;DHT22;10194;50.824;7.134;2023-05-27T15:42:57;23.30;49.70
20068;DHT22;10194;50.824;7.134;2023-05-27T15:45:22;23.40;48.50
20068;DHT22;10194;50.824;7.134;2023-05-27T15:47:48;23.30;49.40
20068;DHT22;10194;50.824;7.134;2023-05-27T15:50:15;23.40;48.20
20068;DHT22;10194;50.824;7.134;2023-05-27T15:52:41;23.50;48.90